sensor_id;sensor_type;location;lat;lon;timestamp;temperature;humidity
52869;DHT22;39100;53.480;6.158;2022-10-16T00:01:20;12.90;99.90
52869;DHT22;39100;53.480;6.158;2022-10-16T00:03:47;12.90;99.90
52869;DHT22;39100;53.480;6.158;2022-10-16T00:06:13;12.90;99.90
52869;DHT22;39100;53.480;6.158;2022-10-16T00:08:40;12.90;99.90
52869;DHT22;39100;53.480;6.158;2022-10-16T00:11:11;12.80;99.90
52869;DHT22;39100;53.480;6.158;2022-10-16T00:13:38;12.80;99.90
52869;DHT22;39100;53.480;6.158;2022-10-16T00:16:06;12.80;99.90
52869;DHT22;39100;53.480;6.158;2022-10-16T00:18:32;12.80;99.90
52869;DHT22;39100;53.480;6.158;2022-10-16T00:21:08;12.80;99.90
52869;DHT22;39100;53.480;6.158;2022-10-16T00:23:35;12.70;99.90
52869;DHT22;39100;53.480;6.158;2022-10-16T00:26:04;12.70;99.90
52869;DHT22;39100;53.480;6.158;2022-10-16T00:28:29;12.80;99.90
52869;DHT22;39100;53.480;6.158;2022-10-16T00:30:55;12.70;99.90
52869;DHT22;39100;53.480;6.158;2022-10-16T00:33:21;12.70;99.90
52869;DHT22;39100;53.480;6.158;2022-10-16T00:35:47;12.70;99.90
52869;DHT22;39100;53.480;6.158;2022-10-16T00:38:13;12.70;99.90
52869;DHT22;39100;53.480;6.158;2022-10-16T00:40:39;12.70;99.90
52869;DHT22;39100;53.480;6.158;2022-10-16T00:43:12;12.70;99.90
52869;DHT22;39100;53.480;6.158;2022-10-16T00:45:38;12.70;99.90
52869;DHT22;39100;53.480;6.158;2022-10-16T00:48:06;12.70;99.90
52869;DHT22;39100;53.480;6.158;2022-10-16T00:50:34;12.60;99.90
52869;DHT22;39100;53.480;6.158;2022-10-16T00:53:01;12.60;99.90
52869;DHT22;39100;53.480;6.158;2022-10-16T00:55:28;12.60;99.90
52869;DHT22;39100;53.480;6.158;2022-10-16T00:57:56;12.60;99.90
52869;DHT22;39100;53.480;6.158;2022-10-16T01:00:25;12.60;99.90
52869;DHT22;39100;53.480;6.158;2022-10-16T01:02:58;12.60;99.90
52869;DHT22;39100;53.480;6.158;2022-10-16T01:05:33;12.60;99.90
52869;DHT22;39100;53.480;6.158;2022-10-16T01:08:13;12.60;99.90
52869;DHT22;39100;53.480;6.158;2022-10-16T01:10:50;12.60;99.90
52869;DHT22;39100;53.480;6.158;2022-10-16T01:13:23;12.60;99.90
52869;DHT22;39100;53.480;6.158;2022-10-16T01:15:56;12.70;99.90
52869;DHT22;39100;53.480;6.158;2022-10-16T01:18:32;12.70;99.90
52869;DHT22;39100;53.480;6.158;2022-10-16T01:21:03;12.60;99.90
52869;DHT22;39100;53.480;6.158;2022-10-16T01:23:38;12.60;99.90
52869;DHT22;39100;53.480;6.158;2022-10-16T01:26:50;12.50;99.90
52869;DHT22;39100;53.480;6.158;2022-10-16T01:29:49;12.40;99.90
52869;DHT22;39100;53.480;6.158;2022-10-16T01:35:03;12.40;99.90
52869;DHT22;39100;53.480;6.158;2022-10-16T01:37:38;12.40;99.90
52869;DHT22;39100;53.480;6.158;2022-10-16T01:40:09;12.40;99.90
52869;DHT22;39100;53.480;6.158;2022-10-16T01:43:12;12.40;99.90
52869;DHT22;39100;53.480;6.158;2022-10-16T01:45:31;12.40;99.90
52869;DHT22;39100;53.480;6.158;2022-10-16T01:47:59;12.40;99.90
52869;DHT22;39100;53.480;6.158;2022-10-16T01:50:26;12.50;99.90
52869;DHT22;39100;53.480;6.158;2022-10-16T01:52:53;12.50;99.90
52869;DHT22;39100;53.480;6.158;2022-10-16T01:55:27;12.50;99.90
52869;DHT22;39100;53.480;6.158;2022-10-16T01:57:55;12.60;99.90
52869;DHT22;39100;53.480;6.158;2022-10-16T02:00:21;12.60;99.90
52869;DHT22;39100;53.480;6.158;2022-10-16T02:02:49;12.60;99.90
52869;DHT22;39100;53.480;6.158;2022-10-16T02:05:25;12.60;99.90
52869;DHT22;39100;53.480;6.158;2022-10-16T02:07:52;12.60;99.90
52869;DHT22;39100;53.480;6.158;2022-10-16T02:10:18;12.60;99.90
52869;DHT22;39100;53.480;6.158;2022-10-16T02:12:53;12.60;99.90
52869;DHT22;39100;53.480;6.158;2022-10-16T02:15:21;12.70;99.90
52869;DHT22;39100;53.480;6.158;2022-10-16T02:17:47;12.60;99.90
52869;DHT22;39100;53.480;6.158;2022-10-16T02:20:12;12.60;99.90
52869;DHT22;39100;53.480;6.158;2022-10-16T02:22:45;12.70;99.90
52869;DHT22;39100;53.480;6.158;2022-10-16T02:28:09;12.90;99.90
52869;DHT22;39100;53.480;6.158;2022-10-16T02:30:45;12.80;99.90
52869;DHT22;39100;53.480;6.158;2022-10-16T02:33:13;12.90;99.90
52869;DHT22;39100;53.480;6.158;2022-10-16T02:35:41;12.90;99.90
52869;DHT22;39100;53.480;6.158;2022-10-16T02:38:08;12.90;99.90
52869;DHT22;39100;53.480;6.158;2022-10-16T02:40:34;12.90;99.90
52869;DHT22;39100;53.480;6.158;2022-10-16T02:43:04;12.90;99.90
52869;DHT22;39100;53.480;6.158;2022-10-16T02:45:29;12.80;99.90
52869;DHT22;39100;53.480;6.158;2022-10-16T02:47:55;12.90;99.90
52869;DHT22;39100;53.480;6.158;2022-10-16T02:50:21;12.90;99.90
52869;DHT22;39100;53.480;6.158;2022-10-16T02:52:47;12.80;99.90
52869;DHT22;39100;53.480;6.158;2022-10-16T02:55:13;12.80;99.90
52869;DHT22;39100;53.480;6.158;2022-10-16T02:57:38;12.80;99.90
52869;DHT22;39100;53.480;6.158;2022-10-16T03:00:09;12.70;99.90
52869;DHT22;39100;53.480;6.158;2022-10-16T03:02:35;12.70;99.90
52869;DHT22;39100;53.480;6.158;2022-10-16T03:05:01;12.70;99.90
52869;DHT22;39100;53.480;6.158;2022-10-16T03:07:26;12.60;99.90
52869;DHT22;39100;53.480;6.158;2022-10-16T03:09:52;12.60;99.90
52869;DHT22;39100;53.480;6.158;2022-10-16T03:12:17;12.60;99.90
52869;DHT22;39100;53.480;6.158;2022-10-16T03:14:43;12.60;99.90
52869;DHT22;39100;53.480;6.158;2022-10-16T03:17:08;12.60;99.90
52869;DHT22;39100;53.480;6.158;2022-10-16T03:19:34;12.60;99.90
52869;DHT22;39100;53.480;6.158;2022-10-16T03:22:01;12.90;99.90
52869;DHT22;39100;53.480;6.158;2022-10-16T03:24:26;12.60;99.90
52869;DHT22;39100;53.480;6.158;2022-10-16T03:26:52;12.60;99.90
52869;DHT22;39100;53.480;6.158;2022-10-16T03:29:17;12.50;99.90
52869;DHT22;39100;53.480;6.158;2022-10-16T03:31:43;13.40;99.90
52869;DHT22;39100;53.480;6.158;2022-10-16T03:34:09;12.50;99.90
52869;DHT22;39100;53.480;6.158;2022-10-16T03:36:34;12.40;99.90
52869;DHT22;39100;53.480;6.158;2022-10-16T03:39:00;12.70;99.90
52869;DHT22;39100;53.480;6.158;2022-10-16T03:41:26;12.30;99.90
52869;DHT22;39100;53.480;6.158;2022-10-16T03:43:51;12.20;99.90
52869;DHT22;39100;53.480;6.158;2022-10-16T03:46:17;12.40;99.90
52869;DHT22;39100;53.480;6.158;2022-10-16T03:48:43;12.10;99.90
52869;DHT22;39100;53.480;6.158;2022-10-16T03:51:08;12.00;99.90
52869;DHT22;39100;53.480;6.158;2022-10-16T03:53:34;12.00;99.90
52869;DHT22;39100;53.480;6.158;2022-10-16T03:55:59;12.30;99.90
52869;DHT22;39100;53.480;6.158;2022-10-16T03:58:25;12.00;99.90
52869;DHT22;39100;53.480;6.158;2022-10-16T04:00:51;12.20;99.90
52869;DHT22;39100;53.480;6.158;2022-10-16T04:03:16;12.00;99.90
52869;DHT22;39100;53.480;6.158;2022-10-16T04:05:44;11.90;99.90
52869;DHT22;39100;53.480;6.158;2022-10-16T04:08:09;11.90;99.90
52869;DHT22;39100;53.480;6.158;2022-10-16T04:10:35;11.90;99.90
52869;DHT22;39100;53.480;6.158;2022-10-16T04:13:00;11.80;99.90
52869;DHT22;39100;53.480;6.158;2022-10-16T04:15:26;11.80;99.90
52869;DHT22;39100;53.480;6.158;2022-10-16T04:17:52;11.80;99.90
52869;DHT22;39100;53.480;6.158;2022-10-16T04:20:18;11.80;99.90
52869;DHT22;39100;53.480;6.158;2022-10-16T04:22:44;11.80;99.90
52869;DHT22;39100;53.480;6.158;2022-10-16T04:25:10;11.80;99.90
52869;DHT22;39100;53.480;6.158;2022-10-16T04:27:36;11.90;99.90
52869;DHT22;39100;53.480;6.158;2022-10-16T04:30:02;11.80;99.90
52869;DHT22;39100;53.480;6.158;2022-10-16T04:32:28;11.90;99.90
52869;DHT22;39100;53.480;6.158;2022-10-16T04:34:53;11.90;99.90
52869;DHT22;39100;53.480;6.158;2022-10-16T04:37:22;12.00;99.90
52869;DHT22;39100;53.480;6.158;2022-10-16T04:39:48;12.00;99.90
52869;DHT22;39100;53.480;6.158;2022-10-16T04:42:13;12.10;99.90
52869;DHT22;39100;53.480;6.158;2022-10-16T04:44:39;12.00;99.90
52869;DHT22;39100;53.480;6.158;2022-10-16T04:47:05;12.10;99.90
52869;DHT22;39100;53.480;6.158;2022-10-16T04:49:30;12.10;99.90
52869;DHT22;39100;53.480;6.158;2022-10-16T04:51:56;12.10;99.90
52869;DHT22;39100;53.480;6.158;2022-10-16T04:54:21;12.10;99.90
52869;DHT22;39100;53.480;6.158;2022-10-16T04:56:47;12.10;99.90
52869;DHT22;39100;53.480;6.158;2022-10-16T04:59:14;12.10;99.90
52869;DHT22;39100;53.480;6.158;2022-10-16T05:01:40;12.10;99.90
52869;DHT22;39100;53.480;6.158;2022-10-16T05:04:06;12.20;99.90
52869;DHT22;39100;53.480;6.158;2022-10-16T05:06:31;12.20;99.90
52869;DHT22;39100;53.480;6.158;2022-10-16T05:08:57;12.20;99.90
52869;DHT22;39100;53.480;6.158;2022-10-16T05:11:22;12.10;99.90
52869;DHT22;39100;53.480;6.158;2022-10-16T05:13:48;12.20;99.90
52869;DHT22;39100;53.480;6.158;2022-10-16T05:16:14;12.20;99.90
52869;DHT22;39100;53.480;6.158;2022-10-16T05:18:39;12.20;99.90
52869;DHT22;39100;53.480;6.158;2022-10-16T05:21:05;12.10;99.90
52869;DHT22;39100;53.480;6.158;2022-10-16T05:23:31;12.20;99.90
52869;DHT22;39100;53.480;6.158;2022-10-16T05:25:58;12.10;99.90
52869;DHT22;39100;53.480;6.158;2022-10-16T05:28:26;12.10;99.90
52869;DHT22;39100;53.480;6.158;2022-10-16T05:30:51;12.10;99.90
52869;DHT22;39100;53.480;6.158;2022-10-16T05:33:20;12.10;99.90
52869;DHT22;39100;53.480;6.158;2022-10-16T05:35:46;12.10;99.90
52869;DHT22;39100;53.480;6.158;2022-10-16T05:38:11;12.10;99.90
52869;DHT22;39100;53.480;6.158;2022-10-16T05:40:37;12.10;99.90
52869;DHT22;39100;53.480;6.158;2022-10-16T05:43:03;12.10;99.90
52869;DHT22;39100;53.480;6.158;2022-10-16T05:45:28;12.10;99.90
52869;DHT22;39100;53.480;6.158;2022-10-16T05:47:54;12.10;99.90
52869;DHT22;39100;53.480;6.158;2022-10-16T05:50:19;12.00;99.90
52869;DHT22;39100;53.480;6.158;2022-10-16T05:52:45;12.00;99.90
52869;DHT22;39100;53.480;6.158;2022-10-16T05:55:11;11.90;99.90
52869;DHT22;39100;53.480;6.158;2022-10-16T05:57:36;11.90;99.90
52869;DHT22;39100;53.480;6.158;2022-10-16T06:00:03;11.90;99.90
52869;DHT22;39100;53.480;6.158;2022-10-16T06:02:28;12.00;99.90
52869;DHT22;39100;53.480;6.158;2022-10-16T06:04:54;11.90;99.90
52869;DHT22;39100;53.480;6.158;2022-10-16T06:07:20;11.90;99.90
52869;DHT22;39100;53.480;6.158;2022-10-16T06:09:50;11.90;99.90
52869;DHT22;39100;53.480;6.158;2022-10-16T06:12:16;11.90;99.90
52869;DHT22;39100;53.480;6.158;2022-10-16T06:14:42;11.90;99.90
52869;DHT22;39100;53.480;6.158;2022-10-16T06:17:07;12.00;99.90
52869;DHT22;39100;53.480;6.158;2022-10-16T06:19:33;11.90;99.90
52869;DHT22;39100;53.480;6.158;2022-10-16T06:21:58;12.00;99.90
52869;DHT22;39100;53.480;6.158;2022-10-16T06:24:24;11.90;99.90
52869;DHT22;39100;53.480;6.158;2022-10-16T06:26:50;12.00;99.90
52869;DHT22;39100;53.480;6.158;2022-10-16T06:29:16;12.00;99.90
52869;DHT22;39100;53.480;6.158;2022-10-16T06:31:41;12.00;99.90
52869;DHT22;39100;53.480;6.158;2022-10-16T06:34:09;11.90;99.90
52869;DHT22;39100;53.480;6.158;2022-10-16T06:36:36;12.00;99.90
52869;DHT22;39100;53.480;6.158;2022-10-16T06:39:02;12.00;99.90
52869;DHT22;39100;53.480;6.158;2022-10-16T06:41:28;12.00;99.90
52869;DHT22;39100;53.480;6.158;2022-10-16T06:43:54;11.90;99.90
52869;DHT22;39100;53.480;6.158;2022-10-16T06:46:22;11.90;99.90
52869;DHT22;39100;53.480;6.158;2022-10-16T06:48:48;12.00;99.90
52869;DHT22;39100;53.480;6.158;2022-10-16T06:51:17;12.00;99.90
52869;DHT22;39100;53.480;6.158;2022-10-16T06:53:45;12.00;99.90
52869;DHT22;39100;53.480;6.158;2022-10-16T06:56:25;12.00;99.90
52869;DHT22;39100;53.480;6.158;2022-10-16T06:58:52;12.00;99.90
52869;DHT22;39100;53.480;6.158;2022-10-16T07:01:19;12.00;99.90
52869;DHT22;39100;53.480;6.158;2022-10-16T07:03:46;12.00;99.90
52869;DHT22;39100;53.480;6.158;2022-10-16T07:06:14;12.00;99.90
52869;DHT22;39100;53.480;6.158;2022-10-16T07:08:41;12.00;99.90
52869;DHT22;39100;53.480;6.158;2022-10-16T07:11:09;12.10;99.90
52869;DHT22;39100;53.480;6.158;2022-10-16T07:13:36;12.20;99.90
52869;DHT22;39100;53.480;6.158;2022-10-16T07:18:35;12.30;99.90
52869;DHT22;39100;53.480;6.158;2022-10-16T07:21:10;12.40;99.90
52869;DHT22;39100;53.480;6.158;2022-10-16T07:23:36;12.40;99.90
52869;DHT22;39100;53.480;6.158;2022-10-16T07:26:03;12.50;99.90
52869;DHT22;39100;53.480;6.158;2022-10-16T07:28:28;12.50;99.90
52869;DHT22;39100;53.480;6.158;2022-10-16T07:30:54;12.60;99.90
52869;DHT22;39100;53.480;6.158;2022-10-16T07:33:20;12.60;99.90
52869;DHT22;39100;53.480;6.158;2022-10-16T07:35:52;12.70;99.90
52869;DHT22;39100;53.480;6.158;2022-10-16T07:38:18;12.80;99.90
52869;DHT22;39100;53.480;6.158;2022-10-16T07:40:44;12.80;99.90
52869;DHT22;39100;53.480;6.158;2022-10-16T07:43:10;12.80;99.90
52869;DHT22;39100;53.480;6.158;2022-10-16T07:45:35;12.80;99.90
52869;DHT22;39100;53.480;6.158;2022-10-16T07:48:01;12.90;99.90
52869;DHT22;39100;53.480;6.158;2022-10-16T07:50:26;12.90;99.90
52869;DHT22;39100;53.480;6.158;2022-10-16T07:52:52;13.00;99.90
52869;DHT22;39100;53.480;6.158;2022-10-16T07:55:17;12.90;99.90
52869;DHT22;39100;53.480;6.158;2022-10-16T07:57:43;13.70;99.90
52869;DHT22;39100;53.480;6.158;2022-10-16T08:00:09;13.00;99.90
52869;DHT22;39100;53.480;6.158;2022-10-16T08:02:39;13.00;99.90
52869;DHT22;39100;53.480;6.158;2022-10-16T08:05:05;13.00;99.90
52869;DHT22;39100;53.480;6.158;2022-10-16T08:07:31;13.10;99.90
52869;DHT22;39100;53.480;6.158;2022-10-16T08:09:57;13.00;99.90
52869;DHT22;39100;53.480;6.158;2022-10-16T08:12:24;13.10;99.90
52869;DHT22;39100;53.480;6.158;2022-10-16T08:14:49;13.20;99.90
52869;DHT22;39100;53.480;6.158;2022-10-16T08:17:15;13.30;99.90
52869;DHT22;39100;53.480;6.158;2022-10-16T08:19:47;13.40;99.90
52869;DHT22;39100;53.480;6.158;2022-10-16T08:22:13;13.40;99.90
52869;DHT22;39100;53.480;6.158;2022-10-16T08:24:40;13.60;99.90
52869;DHT22;39100;53.480;6.158;2022-10-16T08:27:06;13.60;99.90
52869;DHT22;39100;53.480;6.158;2022-10-16T08:29:32;13.60;99.90
52869;DHT22;39100;53.480;6.158;2022-10-16T08:31:58;13.60;99.90
52869;DHT22;39100;53.480;6.158;2022-10-16T08:34:24;13.60;99.90
52869;DHT22;39100;53.480;6.158;2022-10-16T08:36:49;13.60;99.90
52869;DHT22;39100;53.480;6.158;2022-10-16T08:39:15;13.70;99.90
52869;DHT22;39100;53.480;6.158;2022-10-16T08:47:38;13.90;99.90
52869;DHT22;39100;53.480;6.158;2022-10-16T08:50:12;14.00;99.90
52869;DHT22;39100;53.480;6.158;2022-10-16T08:52:41;14.10;99.90
52869;DHT22;39100;53.480;6.158;2022-10-16T08:55:37;14.00;99.90
52869;DHT22;39100;53.480;6.158;2022-10-16T08:58:13;14.10;99.90
52869;DHT22;39100;53.480;6.158;2022-10-16T09:00:40;14.10;99.90
52869;DHT22;39100;53.480;6.158;2022-10-16T09:03:22;14.20;99.90
52869;DHT22;39100;53.480;6.158;2022-10-16T09:16:37;14.30;99.90
52869;DHT22;39100;53.480;6.158;2022-10-16T09:19:18;14.30;99.90
52869;DHT22;39100;53.480;6.158;2022-10-16T09:21:46;14.40;99.90
52869;DHT22;39100;53.480;6.158;2022-10-16T09:24:19;14.50;99.90
52869;DHT22;39100;53.480;6.158;2022-10-16T09:26:45;14.50;99.90
52869;DHT22;39100;53.480;6.158;2022-10-16T09:29:13;14.60;99.90
52869;DHT22;39100;53.480;6.158;2022-10-16T09:31:39;14.60;99.90
52869;DHT22;39100;53.480;6.158;2022-10-16T09:34:05;14.60;99.90
52869;DHT22;39100;53.480;6.158;2022-10-16T09:36:39;14.60;99.90
52869;DHT22;39100;53.480;6.158;2022-10-16T09:39:08;14.50;99.90
52869;DHT22;39100;53.480;6.158;2022-10-16T09:41:36;14.60;99.90
52869;DHT22;39100;53.480;6.158;2022-10-16T09:44:04;14.60;99.90
52869;DHT22;39100;53.480;6.158;2022-10-16T09:46:33;14.70;99.90
52869;DHT22;39100;53.480;6.158;2022-10-16T09:49:24;14.80;99.90
52869;DHT22;39100;53.480;6.158;2022-10-16T09:51:50;14.90;99.90
52869;DHT22;39100;53.480;6.158;2022-10-16T09:54:18;15.00;99.90
52869;DHT22;39100;53.480;6.158;2022-10-16T09:56:44;15.10;99.90
52869;DHT22;39100;53.480;6.158;2022-10-16T09:59:16;15.20;99.90
52869;DHT22;39100;53.480;6.158;2022-10-16T10:01:49;15.20;99.90
52869;DHT22;39100;53.480;6.158;2022-10-16T10:04:19;15.20;99.90
52869;DHT22;39100;53.480;6.158;2022-10-16T10:06:47;15.30;99.90
52869;DHT22;39100;53.480;6.158;2022-10-16T10:09:20;15.40;99.90
52869;DHT22;39100;53.480;6.158;2022-10-16T10:11:50;15.50;99.90
52869;DHT22;39100;53.480;6.158;2022-10-16T10:14:24;15.60;99.90
52869;DHT22;39100;53.480;6.158;2022-10-16T10:16:52;15.70;99.90
52869;DHT22;39100;53.480;6.158;2022-10-16T10:19:23;15.80;99.90
52869;DHT22;39100;53.480;6.158;2022-10-16T10:21:51;15.70;99.90
52869;DHT22;39100;53.480;6.158;2022-10-16T10:24:18;15.60;99.90
52869;DHT22;39100;53.480;6.158;2022-10-16T10:27:17;15.40;99.90
52869;DHT22;39100;53.480;6.158;2022-10-16T10:35:27;14.90;99.90
52869;DHT22;39100;53.480;6.158;2022-10-16T10:38:16;15.00;99.90
52869;DHT22;39100;53.480;6.158;2022-10-16T10:44:01;15.10;99.90
52869;DHT22;39100;53.480;6.158;2022-10-16T10:46:41;15.20;99.90
52869;DHT22;39100;53.480;6.158;2022-10-16T10:49:16;15.30;99.90
52869;DHT22;39100;53.480;6.158;2022-10-16T10:52:22;15.40;99.90
52869;DHT22;39100;53.480;6.158;2022-10-16T10:54:58;15.50;99.90
52869;DHT22;39100;53.480;6.158;2022-10-16T10:57:28;15.60;99.90
52869;DHT22;39100;53.480;6.158;2022-10-16T11:00:03;15.70;99.90
52869;DHT22;39100;53.480;6.158;2022-10-16T11:02:40;15.70;99.90
52869;DHT22;39100;53.480;6.158;2022-10-16T11:08:04;16.00;99.90
52869;DHT22;39100;53.480;6.158;2022-10-16T11:10:52;16.20;99.90
52869;DHT22;39100;53.480;6.158;2022-10-16T11:16:15;16.30;99.90
52869;DHT22;39100;53.480;6.158;2022-10-16T11:19:03;16.10;99.90
52869;DHT22;39100;53.480;6.158;2022-10-16T11:21:35;16.10;99.90
52869;DHT22;39100;53.480;6.158;2022-10-16T11:24:14;16.10;99.90
52869;DHT22;39100;53.480;6.158;2022-10-16T11:26:43;16.10;99.90
52869;DHT22;39100;53.480;6.158;2022-10-16T11:29:16;16.10;99.90
52869;DHT22;39100;53.480;6.158;2022-10-16T11:31:50;16.00;99.90
52869;DHT22;39100;53.480;6.158;2022-10-16T11:34:40;15.90;99.90
52869;DHT22;39100;53.480;6.158;2022-10-16T11:37:23;15.80;99.90
52869;DHT22;39100;53.480;6.158;2022-10-16T11:39:52;15.70;99.90
52869;DHT22;39100;53.480;6.158;2022-10-16T11:42:25;15.70;99.90
52869;DHT22;39100;53.480;6.158;2022-10-16T11:45:26;15.70;99.90
52869;DHT22;39100;53.480;6.158;2022-10-16T11:48:15;15.90;99.90
52869;DHT22;39100;53.480;6.158;2022-10-16T11:50:44;16.00;99.90
52869;DHT22;39100;53.480;6.158;2022-10-16T11:53:34;16.10;99.90
52869;DHT22;39100;53.480;6.158;2022-10-16T11:56:00;16.00;99.90
52869;DHT22;39100;53.480;6.158;2022-10-16T11:58:33;16.00;99.90
52869;DHT22;39100;53.480;6.158;2022-10-16T12:07:14;15.90;99.90
52869;DHT22;39100;53.480;6.158;2022-10-16T12:09:42;15.90;99.90
52869;DHT22;39100;53.480;6.158;2022-10-16T12:12:43;15.80;99.90
52869;DHT22;39100;53.480;6.158;2022-10-16T12:15:29;15.80;99.90
52869;DHT22;39100;53.480;6.158;2022-10-16T12:17:55;15.70;99.90
52869;DHT22;39100;53.480;6.158;2022-10-16T12:22:49;15.60;99.90
52869;DHT22;39100;53.480;6.158;2022-10-16T12:25:30;15.60;99.90
52869;DHT22;39100;53.480;6.158;2022-10-16T12:28:28;15.60;99.90
52869;DHT22;39100;53.480;6.158;2022-10-16T12:31:02;15.60;99.90
52869;DHT22;39100;53.480;6.158;2022-10-16T12:33:40;15.60;99.90
52869;DHT22;39100;53.480;6.158;2022-10-16T12:36:16;15.70;99.90
52869;DHT22;39100;53.480;6.158;2022-10-16T12:38:52;15.80;99.90
52869;DHT22;39100;53.480;6.158;2022-10-16T12:41:35;15.90;99.90
52869;DHT22;39100;53.480;6.158;2022-10-16T12:44:03;16.10;99.90
52869;DHT22;39100;53.480;6.158;2022-10-16T12:51:40;16.40;99.90
52869;DHT22;39100;53.480;6.158;2022-10-16T12:56:52;16.40;99.90
52869;DHT22;39100;53.480;6.158;2022-10-16T13:02:46;16.20;99.90
52869;DHT22;39100;53.480;6.158;2022-10-16T13:10:40;16.60;99.90
52869;DHT22;39100;53.480;6.158;2022-10-16T13:16:09;18.40;99.90
52869;DHT22;39100;53.480;6.158;2022-10-16T13:21:42;18.60;99.90
52869;DHT22;39100;53.480;6.158;2022-10-16T13:24:17;18.20;99.90
52869;DHT22;39100;53.480;6.158;2022-10-16T13:26:57;17.80;99.90
52869;DHT22;39100;53.480;6.158;2022-10-16T13:29:24;17.50;99.90
52869;DHT22;39100;53.480;6.158;2022-10-16T13:31:54;17.10;99.90
52869;DHT22;39100;53.480;6.158;2022-10-16T13:34:22;16.80;99.90
52869;DHT22;39100;53.480;6.158;2022-10-16T13:36:52;16.50;99.90
52869;DHT22;39100;53.480;6.158;2022-10-16T13:39:29;16.30;99.90
52869;DHT22;39100;53.480;6.158;2022-10-16T13:42:02;16.20;99.90
52869;DHT22;39100;53.480;6.158;2022-10-16T13:44:33;16.00;99.90
52869;DHT22;39100;53.480;6.158;2022-10-16T13:47:01;15.90;99.90
52869;DHT22;39100;53.480;6.158;2022-10-16T13:49:27;15.80;99.90
52869;DHT22;39100;53.480;6.158;2022-10-16T13:51:56;15.70;99.90
52869;DHT22;39100;53.480;6.158;2022-10-16T13:54:23;15.60;99.90
52869;DHT22;39100;53.480;6.158;2022-10-16T13:56:49;15.60;99.90
52869;DHT22;39100;53.480;6.158;2022-10-16T13:59:41;15.70;99.90
52869;DHT22;39100;53.480;6.158;2022-10-16T14:04:47;15.40;99.90
52869;DHT22;39100;53.480;6.158;2022-10-16T14:07:23;15.30;99.90
52869;DHT22;39100;53.480;6.158;2022-10-16T14:09:51;15.30;99.90
52869;DHT22;39100;53.480;6.158;2022-10-16T14:12:18;15.20;99.90
52869;DHT22;39100;53.480;6.158;2022-10-16T14:14:45;15.10;99.90
52869;DHT22;39100;53.480;6.158;2022-10-16T14:17:17;15.10;99.90
52869;DHT22;39100;53.480;6.158;2022-10-16T14:19:47;15.00;99.90
52869;DHT22;39100;53.480;6.158;2022-10-16T14:22:40;15.00;99.90
52869;DHT22;39100;53.480;6.158;2022-10-16T14:25:23;15.00;99.90
52869;DHT22;39100;53.480;6.158;2022-10-16T14:33:30;14.80;99.90
52869;DHT22;39100;53.480;6.158;2022-10-16T14:36:05;14.80;99.90
52869;DHT22;39100;53.480;6.158;2022-10-16T14:38:39;14.80;99.90
52869;DHT22;39100;53.480;6.158;2022-10-16T14:41:06;14.80;99.90
52869;DHT22;39100;53.480;6.158;2022-10-16T14:43:40;15.90;99.90
52869;DHT22;39100;53.480;6.158;2022-10-16T14:46:12;14.70;99.90
52869;DHT22;39100;53.480;6.158;2022-10-16T14:48:46;14.70;99.90
52869;DHT22;39100;53.480;6.158;2022-10-16T14:51:17;14.70;99.90
52869;DHT22;39100;53.480;6.158;2022-10-16T14:53:44;14.60;99.90
52869;DHT22;39100;53.480;6.158;2022-10-16T14:56:21;14.60;99.90
52869;DHT22;39100;53.480;6.158;2022-10-16T14:58:48;14.50;99.90
52869;DHT22;39100;53.480;6.158;2022-10-16T15:01:15;14.50;99.90
52869;DHT22;39100;53.480;6.158;2022-10-16T15:03:40;14.40;99.90
52869;DHT22;39100;53.480;6.158;2022-10-16T15:06:14;14.30;99.90
52869;DHT22;39100;53.480;6.158;2022-10-16T15:08:40;14.30;99.90
52869;DHT22;39100;53.480;6.158;2022-10-16T15:11:16;14.20;99.90
52869;DHT22;39100;53.480;6.158;2022-10-16T15:13:43;14.20;99.90
52869;DHT22;39100;53.480;6.158;2022-10-16T15:16:12;14.20;99.90
52869;DHT22;39100;53.480;6.158;2022-10-16T15:18:37;14.10;99.90
52869;DHT22;39100;53.480;6.158;2022-10-16T15:21:03;14.10;99.90
52869;DHT22;39100;53.480;6.158;2022-10-16T15:23:29;14.00;99.90
52869;DHT22;39100;53.480;6.158;2022-10-16T15:25:55;14.00;99.90
52869;DHT22;39100;53.480;6.158;2022-10-16T15:28:23;13.90;99.90
52869;DHT22;39100;53.480;6.158;2022-10-16T15:30:51;14.00;99.90
52869;DHT22;39100;53.480;6.158;2022-10-16T15:33:19;13.90;99.90
52869;DHT22;39100;53.480;6.158;2022-10-16T15:35:51;13.90;99.90
52869;DHT22;39100;53.480;6.158;2022-10-16T15:38:18;13.80;99.90
52869;DHT22;39100;53.480;6.158;2022-10-16T15:40:46;13.80;99.90
52869;DHT22;39100;53.480;6.158;2022-10-16T15:43:11;13.80;99.90
52869;DHT22;39100;53.480;6.158;2022-10-16T15:45:37;13.80;99.90
52869;DHT22;39100;53.480;6.158;2022-10-16T15:48:03;13.70;99.90
52869;DHT22;39100;53.480;6.158;2022-10-16T15:50:30;13.70;99.90
52869;DHT22;39100;53.480;6.158;2022-10-16T15:52:56;13.70;99.90
52869;DHT22;39100;53.480;6.158;2022-10-16T15:55:22;13.70;99.90
52869;DHT22;39100;53.480;6.158;2022-10-16T15:57:47;13.60;99.90
52869;DHT22;39100;53.480;6.158;2022-10-16T16:00:16;13.60;99.90
52869;DHT22;39100;53.480;6.158;2022-10-16T16:02:43;13.60;99.90
52869;DHT22;39100;53.480;6.158;2022-10-16T16:05:10;13.50;99.90
52869;DHT22;39100;53.480;6.158;2022-10-16T16:07:37;13.50;99.90
52869;DHT22;39100;53.480;6.158;2022-10-16T16:10:04;13.50;99.90
52869;DHT22;39100;53.480;6.158;2022-10-16T16:12:31;13.50;99.90
52869;DHT22;39100;53.480;6.158;2022-10-16T16:14:56;13.40;99.90
52869;DHT22;39100;53.480;6.158;2022-10-16T16:17:22;13.40;99.90
52869;DHT22;39100;53.480;6.158;2022-10-16T16:19:48;13.30;99.90
52869;DHT22;39100;53.480;6.158;2022-10-16T16:22:14;13.30;99.90
52869;DHT22;39100;53.480;6.158;2022-10-16T16:24:40;13.20;99.90
52869;DHT22;39100;53.480;6.158;2022-10-16T16:27:05;13.10;99.90
52869;DHT22;39100;53.480;6.158;2022-10-16T16:29:31;13.10;99.90
52869;DHT22;39100;53.480;6.158;2022-10-16T16:31:56;13.10;99.90
52869;DHT22;39100;53.480;6.158;2022-10-16T16:34:24;13.00;99.90
52869;DHT22;39100;53.480;6.158;2022-10-16T16:36:50;13.00;99.90
52869;DHT22;39100;53.480;6.158;2022-10-16T16:39:16;13.00;99.90
52869;DHT22;39100;53.480;6.158;2022-10-16T16:41:42;13.00;99.90
52869;DHT22;39100;53.480;6.158;2022-10-16T16:44:10;12.90;99.90
52869;DHT22;39100;53.480;6.158;2022-10-16T16:46:35;12.90;99.90
52869;DHT22;39100;53.480;6.158;2022-10-16T16:49:02;12.90;99.90
52869;DHT22;39100;53.480;6.158;2022-10-16T16:51:28;12.80;99.90
52869;DHT22;39100;53.480;6.158;2022-10-16T16:53:54;12.80;99.90
52869;DHT22;39100;53.480;6.158;2022-10-16T16:56:22;12.70;99.90
52869;DHT22;39100;53.480;6.158;2022-10-16T16:58:49;12.70;99.90
52869;DHT22;39100;53.480;6.158;2022-10-16T17:01:15;12.60;99.90
52869;DHT22;39100;53.480;6.158;2022-10-16T17:03:42;12.60;99.90